createdAt,value
2018-11-27T00:08:22.084Z,1013.57
2018-11-27T06:44:17.700Z,1016.49
2018-11-27T06:45:17.688Z,1016.46
2018-11-27T06:46:17.677Z,1016.47
2018-11-27T06:47:17.669Z,1016.51
2018-11-27T06:48:17.654Z,1016.53
2018-11-27T06:49:17.643Z,1016.53
2018-11-27T06:50:17.633Z,1016.53
2018-11-27T06:51:17.622Z,1016.52
2018-11-27T06:52:17.611Z,1016.49
2018-11-27T06:53:17.598Z,1016.49
2018-11-27T06:54:17.588Z,1016.50
2018-11-27T06:55:17.581Z,1016.51
2018-11-27T06:56:17.569Z,1016.50
2018-11-27T06:57:17.555Z,1016.55
2018-11-27T06:58:17.547Z,1016.54
2018-11-27T06:59:17.533Z,1016.54
2018-11-27T07:00:17.520Z,1016.55
2018-11-27T07:01:17.511Z,1016.63
2018-11-27T07:02:17.499Z,1016.60
2018-11-27T07:03:17.487Z,1016.64
2018-11-27T07:04:17.477Z,1016.61
2018-11-27T07:05:17.518Z,1016.65
2018-11-27T07:06:17.455Z,1016.67
2018-11-27T07:07:17.443Z,1016.68
2018-11-27T07:08:17.483Z,1016.68
2018-11-27T07:09:17.421Z,1016.70
2018-11-27T07:10:17.414Z,1016.64
2018-11-27T07:11:17.401Z,1016.67
2018-11-27T07:12:17.389Z,1016.74
2018-11-27T07:13:17.581Z,1016.74
2018-11-27T07:14:17.367Z,1016.72
2018-11-27T07:15:17.355Z,1016.79
2018-11-27T07:16:17.351Z,1016.80
2018-11-27T07:17:17.341Z,1016.83
2018-11-27T07:18:17.327Z,1016.81
2018-11-27T07:19:17.311Z,1016.78
2018-11-27T07:20:17.306Z,1016.76
2018-11-27T07:21:17.288Z,1016.79
2018-11-27T07:22:17.285Z,1016.76
2018-11-27T07:23:17.266Z,1016.84
2018-11-27T07:24:17.260Z,1016.74
2018-11-27T07:25:17.255Z,1016.76
2018-11-27T07:26:17.233Z,1016.72
2018-11-27T07:27:17.229Z,1016.75
2018-11-27T07:28:17.215Z,1016.71
2018-11-27T07:29:17.201Z,1016.76
2018-11-27T07:30:17.191Z,1016.83
2018-11-27T07:31:17.179Z,1016.84
2018-11-27T07:32:17.167Z,1016.82
2018-11-27T07:33:17.164Z,1016.82
2018-11-27T07:34:17.146Z,1016.83
2018-11-27T07:35:17.134Z,1016.86
2018-11-27T07:36:17.137Z,1016.87
2018-11-27T07:37:17.119Z,1016.89
2018-11-27T07:38:17.102Z,1016.94
2018-11-27T07:39:17.139Z,1016.94
2018-11-27T07:40:17.077Z,1016.93
2018-11-27T07:41:17.068Z,1016.91
2018-11-27T07:42:17.055Z,1016.92
2018-11-27T07:43:17.051Z,1016.94
2018-11-27T07:44:17.237Z,1016.93
2018-11-27T07:45:17.026Z,1016.90
2018-11-27T07:46:17.011Z,1016.90
2018-11-27T07:47:17.001Z,1016.91
2018-11-27T07:48:16.989Z,1016.92
2018-11-27T07:49:16.979Z,1016.90
2018-11-27T07:50:16.968Z,1016.95
2018-11-27T07:51:16.958Z,1016.92
2018-11-27T07:52:16.944Z,1016.98
2018-11-27T07:53:16.936Z,1016.93
2018-11-27T07:54:16.922Z,1017.00
2018-11-27T07:55:16.912Z,1016.98
2018-11-27T07:56:16.904Z,1016.99
2018-11-27T07:57:16.898Z,1016.95
2018-11-27T07:58:16.884Z,1017.01
2018-11-27T07:59:16.874Z,1017.05
2018-11-27T08:00:16.858Z,1017.04
2018-11-27T08:01:16.847Z,1017.07
2018-11-27T08:02:16.832Z,1017.02
2018-11-27T08:03:16.822Z,1016.99
2018-11-27T08:04:16.811Z,1017.04
2018-11-27T08:05:16.803Z,1016.98
2018-11-27T08:06:16.793Z,1017.09
2018-11-27T08:07:16.778Z,1017.07
2018-11-27T08:08:16.767Z,1017.06
2018-11-27T08:09:16.801Z,1017.10
2018-11-27T08:10:16.761Z,1017.13
2018-11-27T08:11:16.767Z,1017.09
2018-11-27T08:12:16.776Z,1017.10
2018-11-27T08:13:16.765Z,1017.13
2018-11-27T08:14:16.713Z,1017.12
2018-11-27T08:15:16.718Z,1017.08
2018-11-27T08:16:16.720Z,1017.17
2018-11-27T08:17:16.670Z,1017.16
2018-11-27T08:18:16.659Z,1017.09
2018-11-27T08:19:16.644Z,1017.20
2018-11-27T08:20:16.641Z,1017.16
2018-11-27T08:21:16.621Z,1017.17
2018-11-27T08:22:16.618Z,1017.22
2018-11-27T08:23:16.603Z,1017.23
2018-11-27T08:24:16.595Z,1017.24
2018-11-27T08:25:16.582Z,1017.36
2018-11-27T08:26:16.567Z,1017.29
2018-11-27T08:27:16.560Z,1017.36
2018-11-27T08:28:16.548Z,1017.33
2018-11-27T08:29:16.534Z,1017.38
2018-11-27T08:30:16.524Z,1017.31
2018-11-27T08:31:16.513Z,1017.35
2018-11-27T08:32:16.501Z,1017.37
2018-11-27T08:33:16.491Z,1017.37
2018-11-27T08:34:16.481Z,1017.36
2018-11-27T08:35:16.474Z,1017.39
2018-11-27T08:36:16.460Z,1017.40
2018-11-27T08:37:16.447Z,1017.42
2018-11-27T08:38:16.436Z,1017.44
2018-11-27T08:39:16.432Z,1017.45
2018-11-27T08:40:16.414Z,1017.44
2018-11-27T08:41:16.402Z,1017.45
2018-11-27T08:42:16.392Z,1017.46
2018-11-27T08:43:16.389Z,1017.50
2018-11-27T08:44:16.373Z,1017.55
2018-11-27T08:45:16.358Z,1017.51
2018-11-27T08:46:16.354Z,1017.53
2018-11-27T08:47:16.336Z,1017.55
2018-11-27T08:48:16.324Z,1017.59
2018-11-27T08:49:16.322Z,1017.61
2018-11-27T08:50:16.307Z,1017.59
2018-11-27T08:51:16.295Z,1017.55
2018-11-27T08:52:16.280Z,1017.59
2018-11-27T08:53:16.276Z,1017.60
2018-11-27T08:54:16.260Z,1017.66
2018-11-27T08:55:16.248Z,1017.63
2018-11-27T08:56:16.242Z,1017.65
2018-11-27T08:57:16.232Z,1017.71
2018-11-27T08:58:16.214Z,1017.68
2018-11-27T08:59:16.208Z,1017.69
2018-11-27T09:00:16.194Z,1017.71
2018-11-27T09:01:16.181Z,1017.70
2018-11-27T09:02:16.172Z,1017.74
2018-11-27T09:03:16.167Z,1017.76
2018-11-27T09:04:16.150Z,1017.73
2018-11-27T09:05:16.140Z,1017.81
2018-11-27T09:06:16.127Z,1017.79
2018-11-27T09:07:17.131Z,1017.79
2018-11-27T09:08:16.114Z,1017.83
2018-11-27T09:09:16.098Z,1017.83
2018-11-27T09:10:16.082Z,1017.80
2018-11-27T09:11:16.073Z,1017.83
2018-11-27T09:12:16.063Z,1017.89
2018-11-27T09:13:16.275Z,1017.94
2018-11-27T09:14:16.038Z,1017.97
2018-11-27T09:15:16.098Z,1017.94
2018-11-27T09:16:16.017Z,1017.93
2018-11-27T09:17:16.010Z,1017.91
2018-11-27T09:18:15.995Z,1017.98
2018-11-27T09:19:15.984Z,1018.03
2018-11-27T09:20:15.974Z,1018.03
2018-11-27T09:21:15.961Z,1018.01
2018-11-27T09:22:15.950Z,1018.02
2018-11-27T09:23:15.940Z,1018.05
2018-11-27T09:24:15.928Z,1018.07
2018-11-27T09:25:15.951Z,1018.01
2018-11-27T09:26:15.915Z,1018.05
2018-11-27T09:27:15.893Z,1018.02
2018-11-27T09:28:15.887Z,1018.05
2018-11-27T09:29:15.872Z,1018.06
2018-11-27T09:30:15.861Z,1018.07
2018-11-27T09:31:15.850Z,1018.09
2018-11-27T09:32:15.843Z,1018.11
2018-11-27T09:33:15.827Z,1018.16
2018-11-27T09:34:15.818Z,1018.15
2018-11-27T09:35:15.806Z,1018.15
2018-11-27T09:36:15.794Z,1018.15
2018-11-27T09:37:15.788Z,1018.12
2018-11-27T09:38:15.774Z,1018.16
2018-11-27T09:39:15.763Z,1018.17
2018-11-27T09:40:15.753Z,1018.15
2018-11-27T09:41:15.742Z,1018.16
2018-11-27T09:42:15.736Z,1018.12
2018-11-27T09:43:15.715Z,1018.19
2018-11-27T09:44:15.711Z,1018.17
2018-11-27T09:45:15.721Z,1018.15
2018-11-27T09:46:15.680Z,1018.18
2018-11-27T09:47:15.672Z,1018.16
2018-11-27T09:48:15.659Z,1018.16
2018-11-27T09:49:15.647Z,1018.22
2018-11-27T09:50:15.643Z,1018.21
2018-11-27T09:51:15.629Z,1018.22
2018-11-27T09:52:15.622Z,1018.24
2018-11-27T09:53:15.604Z,1018.25
2018-11-27T09:54:15.596Z,1018.28
2018-11-27T09:55:15.582Z,1018.37
2018-11-27T09:56:15.574Z,1018.34
2018-11-27T09:57:15.557Z,1018.27
2018-11-27T09:58:15.549Z,1018.32
2018-11-27T09:59:15.540Z,1018.30
2018-11-27T10:00:15.522Z,1018.32
2018-11-27T10:01:15.512Z,1018.30
2018-11-27T10:02:15.506Z,1018.35
2018-11-27T10:03:15.491Z,1018.36
2018-11-27T10:04:15.480Z,1018.32
2018-11-27T10:05:15.467Z,1018.33
2018-11-27T10:06:15.459Z,1018.36
2018-11-27T10:07:15.454Z,1018.39
2018-11-27T10:08:15.434Z,1018.35
2018-11-27T10:09:15.423Z,1018.42
2018-11-27T10:10:15.415Z,1018.41
2018-11-27T10:11:15.737Z,1018.36
2018-11-27T10:12:15.389Z,1018.38
2018-11-27T10:13:15.375Z,1018.42
2018-11-27T10:14:15.377Z,1018.48
2018-11-27T10:15:15.361Z,1018.46
2018-11-27T10:16:15.349Z,1018.44
2018-11-27T10:17:15.333Z,1018.41
2018-11-27T10:18:15.323Z,1018.39
2018-11-27T10:19:15.317Z,1018.42
2018-11-27T10:20:15.307Z,1018.46
2018-11-27T10:21:15.292Z,1018.39
2018-11-27T10:22:15.276Z,1018.41
2018-11-27T10:23:15.266Z,1018.49
2018-11-27T10:24:15.262Z,1018.52
2018-11-27T10:25:15.244Z,1018.50
2018-11-27T10:26:15.233Z,1018.54
2018-11-27T10:27:15.220Z,1018.49
2018-11-27T10:28:15.205Z,1018.36
2018-11-27T10:29:15.201Z,1018.42
2018-11-27T10:30:15.186Z,1018.29
2018-11-27T10:31:15.199Z,1018.31
2018-11-27T10:32:15.163Z,1018.30
2018-11-27T10:33:15.151Z,1018.33
2018-11-27T10:34:15.142Z,1018.29
2018-11-27T10:35:15.130Z,1018.33
2018-11-27T10:36:15.123Z,1018.33
2018-11-27T10:37:15.106Z,1018.32
2018-11-27T10:38:15.093Z,1018.38
2018-11-27T10:39:15.082Z,1018.34
2018-11-27T10:40:15.074Z,1018.35
2018-11-27T10:41:15.060Z,1018.41
2018-11-27T10:42:15.052Z,1018.39
2018-11-27T10:43:19.672Z,1018.40
2018-11-27T10:44:15.033Z,1018.37
2018-11-27T10:45:15.016Z,1018.37
2018-11-27T10:46:15.007Z,1018.47
2018-11-27T10:47:14.994Z,1018.46
2018-11-27T10:48:14.985Z,1018.43
2018-11-27T10:49:14.971Z,1018.50
2018-11-27T10:50:14.960Z,1018.46
2018-11-27T10:51:14.952Z,1018.54
2018-11-27T10:52:14.940Z,1018.54
2018-11-27T10:53:14.928Z,1018.52
2018-11-27T10:54:14.916Z,1018.51
2018-11-27T10:55:14.907Z,1018.46
2018-11-27T10:56:14.900Z,1018.48
2018-11-27T10:57:14.886Z,1018.48
2018-11-27T10:58:14.873Z,1018.46
2018-11-27T10:59:14.860Z,1018.47
2018-11-27T11:00:14.849Z,1018.40
2018-11-27T11:01:14.836Z,1018.42
2018-11-27T11:02:14.825Z,1018.45
2018-11-27T11:03:14.813Z,1018.50
2018-11-27T11:04:14.802Z,1018.48
2018-11-27T11:05:14.793Z,1018.48
2018-11-27T11:06:14.784Z,1018.50
2018-11-27T11:07:15.712Z,1018.52
2018-11-27T11:08:14.758Z,1018.46
2018-11-27T11:09:14.757Z,1018.50
2018-11-27T11:10:14.740Z,1018.51
2018-11-27T11:11:14.724Z,1018.51
2018-11-27T11:12:14.712Z,1018.52
2018-11-27T11:13:14.708Z,1018.58
2018-11-27T11:14:14.693Z,1018.59
2018-11-27T11:15:14.680Z,1018.58
2018-11-27T11:16:14.671Z,1018.65
2018-11-27T11:17:14.657Z,1018.64
2018-11-27T11:18:14.644Z,1018.65
2018-11-27T11:19:18.335Z,1018.70
2018-11-27T11:20:14.626Z,1018.70
2018-11-27T11:21:14.615Z,1018.73
2018-11-27T11:22:14.600Z,1018.67
2018-11-27T11:23:14.589Z,1018.68
2018-11-27T11:24:14.582Z,1018.67
2018-11-27T11:25:14.567Z,1018.64
2018-11-27T11:26:14.555Z,1018.65
2018-11-27T11:27:14.545Z,1018.70
2018-11-27T11:28:14.539Z,1018.71
2018-11-27T11:29:14.521Z,1018.72
2018-11-27T11:30:14.511Z,1018.70
2018-11-27T11:31:14.499Z,1018.71
2018-11-27T11:32:14.497Z,1018.70
2018-11-27T11:33:14.480Z,1018.73
2018-11-27T11:34:14.466Z,1018.77
2018-11-27T11:35:14.465Z,1018.78
2018-11-27T11:36:14.443Z,1018.75
2018-11-27T11:37:14.438Z,1018.76
2018-11-27T11:38:14.422Z,1018.71
2018-11-27T11:39:14.438Z,1018.74
2018-11-27T11:40:14.401Z,1018.74
2018-11-27T11:41:14.389Z,1018.81
2018-11-27T11:42:14.381Z,1018.82
2018-11-27T11:43:14.371Z,1018.80
2018-11-27T11:44:14.356Z,1018.84
2018-11-27T11:45:14.368Z,1018.82
2018-11-27T11:46:14.337Z,1018.84
2018-11-27T11:47:14.321Z,1018.81
2018-11-27T11:48:14.312Z,1018.83
2018-11-27T11:49:14.300Z,1018.84
2018-11-27T11:50:14.291Z,1018.90
2018-11-27T11:51:14.282Z,1018.89
2018-11-27T11:52:14.269Z,1019.00
2018-11-27T11:53:14.259Z,1018.98
2018-11-27T11:54:14.243Z,1019.03
2018-11-27T11:55:14.231Z,1019.07
2018-11-27T11:56:14.222Z,1019.04
2018-11-27T11:57:14.219Z,1019.07
2018-11-27T11:58:14.201Z,1019.04
2018-11-27T11:59:14.189Z,1019.07
2018-11-27T12:00:14.216Z,1019.02
2018-11-27T12:01:14.170Z,1019.03
2018-11-27T12:02:14.153Z,1019.06
2018-11-27T12:03:14.141Z,1019.11
2018-11-27T12:04:14.130Z,1019.04
2018-11-27T12:05:14.118Z,1019.06
2018-11-27T12:06:14.111Z,1019.05
2018-11-27T12:07:14.097Z,1019.11
2018-11-27T12:08:14.087Z,1019.10
2018-11-27T12:09:14.074Z,1019.16
2018-11-27T12:10:14.063Z,1019.16
2018-11-27T12:11:14.372Z,1019.06
2018-11-27T12:12:14.049Z,1019.08
2018-11-27T12:13:14.030Z,1019.12
2018-11-27T12:14:14.018Z,1019.01
2018-11-27T12:15:14.017Z,1019.06
2018-11-27T12:16:13.996Z,1019.15
2018-11-27T12:17:13.985Z,1019.11
2018-11-27T12:18:13.975Z,1019.12
2018-11-27T12:19:13.972Z,1019.10
2018-11-27T12:20:13.953Z,1019.10
2018-11-27T12:21:13.941Z,1019.17
2018-11-27T12:22:13.939Z,1019.13
2018-11-27T12:23:13.926Z,1019.17
2018-11-27T12:24:13.915Z,1019.19
2018-11-27T12:25:13.899Z,1019.07
2018-11-27T12:26:13.892Z,1019.03
2018-11-27T12:27:13.873Z,1019.09
2018-11-27T12:28:14.932Z,1019.07
2018-11-27T12:29:13.857Z,1019.17
2018-11-27T12:30:13.840Z,1019.14
2018-11-27T12:31:13.833Z,1019.17
2018-11-27T12:32:13.820Z,1019.22
2018-11-27T12:33:13.807Z,1019.27
2018-11-27T12:34:13.797Z,1019.18
2018-11-27T12:35:13.796Z,1019.24
2018-11-27T12:36:13.781Z,1019.19
2018-11-27T12:37:13.763Z,1019.27
2018-11-27T12:38:13.751Z,1019.20
2018-11-27T12:39:13.758Z,1019.21
2018-11-27T12:40:13.752Z,1019.19
2018-11-27T12:41:13.719Z,1019.15
2018-11-27T12:42:13.709Z,1019.10
2018-11-27T12:43:13.696Z,1019.14
2018-11-27T12:44:13.687Z,1019.11
2018-11-27T12:45:13.674Z,1019.16
2018-11-27T12:46:13.666Z,1019.18
2018-11-27T12:47:13.702Z,1019.19
2018-11-27T12:48:13.641Z,1019.23
2018-11-27T12:49:13.658Z,1019.13
2018-11-27T12:50:13.626Z,1019.15
2018-11-27T12:51:14.170Z,1019.19
2018-11-27T12:52:13.596Z,1019.15
2018-11-27T12:53:16.691Z,1019.14
2018-11-27T12:54:13.577Z,1019.16
2018-11-27T12:55:13.564Z,1019.26
2018-11-27T12:56:13.555Z,1019.21
2018-11-27T12:57:13.554Z,1019.25
2018-11-27T12:58:13.531Z,1019.17
2018-11-27T12:59:13.524Z,1019.25
2018-11-27T13:00:13.513Z,1019.17
2018-11-27T13:01:13.497Z,1019.17
2018-11-27T13:02:13.486Z,1019.19
2018-11-27T13:03:13.475Z,1019.19
2018-11-27T13:04:13.463Z,1019.27
2018-11-27T13:05:13.455Z,1019.21
2018-11-27T13:06:13.442Z,1019.31
2018-11-27T13:07:13.431Z,1019.26
2018-11-27T13:08:13.421Z,1019.25
2018-11-27T13:09:13.412Z,1019.24
2018-11-27T13:10:13.400Z,1019.32
2018-11-27T13:11:13.386Z,1019.26
2018-11-27T13:12:13.375Z,1019.23
2018-11-27T13:13:13.371Z,1019.30
2018-11-27T13:14:13.354Z,1019.30
2018-11-27T13:15:13.341Z,1019.30
2018-11-27T13:16:13.340Z,1019.34
2018-11-27T13:17:13.326Z,1019.35
2018-11-27T13:18:13.310Z,1019.38
2018-11-27T13:19:13.299Z,1019.39
2018-11-27T13:20:13.294Z,1019.32
2018-11-27T13:21:13.275Z,1019.32
2018-11-27T13:22:13.265Z,1019.35
2018-11-27T13:23:13.258Z,1019.35
2018-11-27T13:24:13.245Z,1019.29
2018-11-27T13:25:13.232Z,1019.31
2018-11-27T13:26:13.221Z,1019.32
2018-11-27T13:27:13.262Z,1019.35
2018-11-27T13:28:13.198Z,1019.40
2018-11-27T13:29:13.187Z,1019.43
2018-11-27T13:30:13.181Z,1019.34
2018-11-27T13:31:13.167Z,1019.33
2018-11-27T13:32:13.166Z,1019.40
2018-11-27T13:33:13.147Z,1019.47
2018-11-27T13:34:13.137Z,1019.51
2018-11-27T13:35:13.127Z,1019.47
2018-11-27T13:36:13.109Z,1019.48
2018-11-27T13:37:13.098Z,1019.44
2018-11-27T13:38:13.094Z,1019.45
2018-11-27T13:39:13.076Z,1019.41
2018-11-27T13:40:13.064Z,1019.46
2018-11-27T13:41:13.054Z,1019.41
2018-11-27T13:42:13.076Z,1019.45
2018-11-27T13:43:13.039Z,1019.38
2018-11-27T13:44:13.023Z,1019.42
2018-11-27T13:45:13.014Z,1019.51
2018-11-27T13:46:13.004Z,1019.47
2018-11-27T13:47:12.987Z,1019.46
2018-11-27T13:48:13.019Z,1019.49
2018-11-27T13:49:12.966Z,1019.47
2018-11-27T13:50:13.001Z,1019.49
2018-11-27T13:51:12.941Z,1019.42
2018-11-27T13:52:12.934Z,1019.45
2018-11-27T13:53:12.921Z,1019.47
2018-11-27T13:54:12.918Z,1019.43
2018-11-27T13:55:12.930Z,1019.51
2018-11-27T13:56:12.927Z,1019.52
2018-11-27T13:57:12.927Z,1019.52
2018-11-27T13:58:12.874Z,1019.55
2018-11-27T13:59:12.888Z,1019.60
2018-11-27T14:00:12.881Z,1019.53
2018-11-27T14:01:12.874Z,1019.56
2018-11-27T14:02:12.822Z,1019.57
2018-11-27T14:03:12.809Z,1019.55
2018-11-27T14:04:12.803Z,1019.63
2018-11-27T14:05:12.792Z,1019.58
2018-11-27T14:06:12.773Z,1019.62
2018-11-27T14:07:12.766Z,1019.64
2018-11-27T14:08:12.750Z,1019.62
2018-11-27T14:09:12.755Z,1019.64
2018-11-27T14:10:12.755Z,1019.65
2018-11-27T14:11:12.717Z,1019.66
2018-11-27T14:12:12.709Z,1019.59
2018-11-27T14:13:12.700Z,1019.63
2018-11-27T14:14:12.683Z,1019.61
2018-11-27T14:15:12.679Z,1019.59
2018-11-27T14:16:12.660Z,1019.57
2018-11-27T14:17:12.662Z,1019.58
2018-11-27T14:18:12.650Z,1019.59
2018-11-27T14:19:12.646Z,1019.58
2018-11-27T14:20:12.626Z,1019.62
2018-11-27T14:21:12.618Z,1019.58
2018-11-27T14:22:12.596Z,1019.61
2018-11-27T14:23:12.614Z,1019.58
2018-11-27T14:24:12.589Z,1019.70
2018-11-27T14:25:12.558Z,1019.67
2018-11-27T14:26:12.548Z,1019.68
2018-11-27T14:27:12.543Z,1019.68
2018-11-27T14:28:12.527Z,1019.72
2018-11-27T14:29:12.515Z,1019.71
2018-11-27T14:30:12.502Z,1019.68
2018-11-27T14:31:12.492Z,1019.69
2018-11-27T14:32:12.480Z,1019.69
2018-11-27T14:33:12.468Z,1019.66
2018-11-27T14:34:12.463Z,1019.70
2018-11-27T14:35:12.447Z,1019.66
2018-11-27T14:36:12.436Z,1019.67
2018-11-27T14:37:12.423Z,1019.69
2018-11-27T14:38:12.417Z,1019.66
2018-11-27T14:39:12.402Z,1019.66
2018-11-27T14:40:12.392Z,1019.68
2018-11-27T14:41:12.384Z,1019.74
2018-11-27T14:42:12.367Z,1019.73
2018-11-27T14:43:12.358Z,1019.75
2018-11-27T14:44:12.345Z,1019.80
2018-11-27T14:45:12.333Z,1019.74
2018-11-27T14:46:12.322Z,1019.79
2018-11-27T14:47:12.312Z,1019.75
2018-11-27T14:48:12.303Z,1019.81
2018-11-27T14:49:12.289Z,1019.80
2018-11-27T14:50:12.281Z,1019.79
2018-11-27T14:51:12.266Z,1019.75
2018-11-27T14:52:12.255Z,1019.74
2018-11-27T14:53:12.244Z,1019.74
2018-11-27T14:54:12.260Z,1019.78
2018-11-27T14:55:12.230Z,1019.80
2018-11-27T14:56:12.213Z,1019.83
2018-11-27T14:57:12.200Z,1019.81
2018-11-27T14:58:14.992Z,1019.79
2018-11-27T14:59:12.183Z,1019.81
2018-11-27T15:00:12.166Z,1019.83
2018-11-27T15:01:12.161Z,1019.79
2018-11-27T15:02:12.147Z,1019.80
2018-11-27T15:03:12.140Z,1019.76
2018-11-27T15:04:12.123Z,1019.73
2018-11-27T15:05:12.112Z,1019.73
2018-11-27T15:06:12.099Z,1019.74
2018-11-27T15:07:12.091Z,1019.75
2018-11-27T15:08:12.083Z,1019.82
2018-11-27T15:09:12.069Z,1019.75
2018-11-27T15:10:12.061Z,1019.82
2018-11-27T15:11:12.773Z,1019.82
2018-11-27T15:12:12.033Z,1019.82
2018-11-27T15:13:12.022Z,1019.86
2018-11-27T15:14:12.018Z,1019.80
2018-11-27T15:15:12.000Z,1019.86
2018-11-27T15:16:11.996Z,1019.89
2018-11-27T15:17:11.981Z,1019.89
2018-11-27T15:18:11.967Z,1019.89
2018-11-27T15:19:11.956Z,1020.01
2018-11-27T15:20:11.945Z,1019.97
2018-11-27T15:21:11.940Z,1019.95
2018-11-27T15:22:11.933Z,1019.97
2018-11-27T15:23:11.921Z,1020.02
2018-11-27T15:24:11.900Z,1019.99
2018-11-27T15:25:11.894Z,1020.01
2018-11-27T15:26:11.878Z,1020.05
2018-11-27T15:27:11.867Z,1019.97
2018-11-27T15:28:11.856Z,1020.02
2018-11-27T15:29:11.847Z,1020.01
2018-11-27T15:30:11.841Z,1019.99
2018-11-27T15:31:11.828Z,1019.98
2018-11-27T15:32:11.812Z,1020.02
2018-11-27T15:33:11.800Z,1020.05
2018-11-27T15:34:11.795Z,1020.10
2018-11-27T15:35:11.778Z,1020.13
2018-11-27T15:36:11.771Z,1020.07
2018-11-27T15:37:11.760Z,1020.04
2018-11-27T15:38:11.745Z,1020.04
2018-11-27T15:39:11.737Z,1020.05
2018-11-27T15:40:11.724Z,1019.99
2018-11-27T15:41:11.712Z,1020.01
2018-11-27T15:42:11.703Z,1020.01
2018-11-27T15:43:11.689Z,1020.03
2018-11-27T15:44:11.679Z,1020.12
2018-11-27T15:45:11.674Z,1020.06
2018-11-27T15:46:11.657Z,1020.07
2018-11-27T15:47:11.653Z,1020.05
2018-11-27T15:48:11.636Z,1020.07
2018-11-27T15:49:11.631Z,1020.09
2018-11-27T15:50:11.614Z,1020.09
2018-11-27T15:51:11.600Z,1020.04
2018-11-27T15:52:11.590Z,1020.03
2018-11-27T15:53:11.582Z,1020.05
2018-11-27T15:54:11.567Z,1020.05
2018-11-27T15:55:11.557Z,1020.03
2018-11-27T15:56:11.551Z,1020.07
2018-11-27T15:57:11.537Z,1020.09
2018-11-27T15:58:11.525Z,1020.06
2018-11-27T15:59:11.511Z,1020.09
2018-11-27T16:00:11.507Z,1020.10
2018-11-27T16:01:11.493Z,1020.15
2018-11-27T16:02:11.478Z,1020.13
2018-11-27T16:03:11.469Z,1020.17
2018-11-27T16:04:11.456Z,1020.08
2018-11-27T16:05:11.445Z,1020.08
2018-11-27T16:06:11.438Z,1020.10
2018-11-27T16:07:11.422Z,1020.10
2018-11-27T16:08:11.422Z,1020.17
2018-11-27T16:09:11.403Z,1020.12
2018-11-27T16:10:11.395Z,1020.15
2018-11-27T16:11:11.385Z,1020.17
2018-11-27T16:12:11.370Z,1020.17
2018-11-27T16:13:11.357Z,1020.18
2018-11-27T16:14:11.344Z,1020.19
2018-11-27T16:15:11.337Z,1020.20
2018-11-27T16:16:11.320Z,1020.22
2018-11-27T16:17:11.323Z,1020.31
2018-11-27T16:18:11.299Z,1020.25
2018-11-27T16:19:11.292Z,1020.27
2018-11-27T16:20:11.338Z,1020.32
2018-11-27T16:21:11.269Z,1020.33
2018-11-27T16:22:11.255Z,1020.35
2018-11-27T16:23:11.244Z,1020.37
2018-11-27T16:24:11.236Z,1020.39
2018-11-27T16:25:11.221Z,1020.39
2018-11-27T16:26:11.211Z,1020.47
2018-11-27T16:27:11.196Z,1020.47
2018-11-27T16:28:11.197Z,1020.47
2018-11-27T16:29:11.174Z,1020.50
2018-11-27T16:30:11.166Z,1020.46
2018-11-27T16:31:11.153Z,1020.52
2018-11-27T16:32:11.140Z,1020.50
2018-11-27T16:33:11.129Z,1020.56
2018-11-27T16:34:11.118Z,1020.56
2018-11-27T16:35:11.106Z,1020.62
2018-11-27T16:36:11.096Z,1020.54
2018-11-27T16:37:11.083Z,1020.55
2018-11-27T16:38:11.072Z,1020.53
2018-11-27T16:39:11.066Z,1020.60
2018-11-27T16:40:11.049Z,1020.61
2018-11-27T16:41:11.046Z,1020.61
2018-11-27T16:42:12.301Z,1020.63
2018-11-27T16:43:11.015Z,1020.65
2018-11-27T16:44:11.004Z,1020.72
2018-11-27T16:45:11.000Z,1020.65
2018-11-27T16:46:10.983Z,1020.76
2018-11-27T16:47:10.972Z,1020.74
2018-11-27T16:48:10.967Z,1020.74
2018-11-27T16:49:10.951Z,1020.71
2018-11-27T16:50:10.940Z,1020.75
2018-11-27T16:51:10.935Z,1020.71
2018-11-27T16:52:10.920Z,1020.71
2018-11-27T16:53:10.907Z,1020.72
2018-11-27T16:54:10.904Z,1020.76
2018-11-27T16:55:10.883Z,1020.78
2018-11-27T16:56:10.874Z,1020.70
2018-11-27T16:57:10.863Z,1020.79
2018-11-27T16:58:10.853Z,1020.76
2018-11-27T16:59:10.841Z,1020.75
2018-11-27T17:00:10.829Z,1020.75
2018-11-27T17:01:10.819Z,1020.75
2018-11-27T17:02:10.813Z,1020.75
2018-11-27T17:03:10.797Z,1020.78
2018-11-27T17:04:10.786Z,1020.80
2018-11-27T17:05:10.773Z,1020.88
2018-11-27T17:06:10.761Z,1020.88
2018-11-27T17:07:10.751Z,1020.92
2018-11-27T17:08:10.739Z,1020.89
2018-11-27T17:09:10.731Z,1020.89
2018-11-27T17:10:10.718Z,1020.93
2018-11-27T17:11:10.707Z,1020.92
2018-11-27T17:12:10.695Z,1020.96
2018-11-27T17:13:10.690Z,1020.97
2018-11-27T17:14:10.675Z,1020.90
2018-11-27T17:15:10.664Z,1020.97
2018-11-27T17:16:10.658Z,1020.97
2018-11-27T17:17:10.640Z,1020.99
2018-11-27T17:18:10.631Z,1020.98
2018-11-27T17:19:10.620Z,1021.06
2018-11-27T17:20:10.607Z,1021.00
2018-11-27T17:21:10.596Z,1021.00
2018-11-27T17:22:10.587Z,1021.01
2018-11-27T17:23:10.572Z,1021.02
2018-11-27T17:24:10.560Z,1021.02
2018-11-27T17:25:10.553Z,1020.97
2018-11-27T17:26:10.538Z,1021.02
2018-11-27T17:27:10.526Z,1021.00
2018-11-27T17:28:10.531Z,1021.03
2018-11-27T17:29:10.505Z,1021.02
2018-11-27T17:30:10.493Z,1021.02
2018-11-27T17:31:10.484Z,1020.98
2018-11-27T17:32:10.483Z,1021.05
2018-11-27T17:33:10.466Z,1021.01
2018-11-27T17:34:10.450Z,1021.03
2018-11-27T17:35:10.436Z,1021.08
2018-11-27T17:36:10.425Z,1021.09
2018-11-27T17:37:10.422Z,1021.17
2018-11-27T17:38:10.404Z,1021.20
2018-11-27T17:39:10.392Z,1021.20
2018-11-27T17:40:10.382Z,1021.22
2018-11-27T17:41:10.370Z,1021.26
2018-11-27T17:42:10.359Z,1021.29
2018-11-27T17:43:10.350Z,1021.27
2018-11-27T17:44:10.337Z,1021.30
2018-11-27T17:45:10.331Z,1021.33
2018-11-27T17:46:10.313Z,1021.29
2018-11-27T17:47:10.303Z,1021.30
2018-11-27T17:48:10.291Z,1021.29
2018-11-27T17:49:10.286Z,1021.31
2018-11-27T17:50:10.269Z,1021.30
2018-11-27T17:51:10.257Z,1021.31
2018-11-27T17:52:10.245Z,1021.34
2018-11-27T17:53:10.236Z,1021.31
2018-11-27T17:54:10.229Z,1021.37
2018-11-27T17:55:10.219Z,1021.36
2018-11-27T17:56:10.212Z,1021.42
2018-11-27T17:57:10.193Z,1021.42
2018-11-27T17:58:10.182Z,1021.41
2018-11-27T17:59:10.170Z,1021.44
2018-11-27T18:00:10.157Z,1021.36
2018-11-27T18:01:10.145Z,1021.37
2018-11-27T18:02:10.135Z,1021.34
2018-11-27T18:03:10.125Z,1021.36
2018-11-27T18:04:10.119Z,1021.35
2018-11-27T18:05:10.103Z,1021.34
2018-11-27T18:06:10.099Z,1021.28
2018-11-27T18:07:10.079Z,1021.31
2018-11-27T18:08:10.069Z,1021.29
2018-11-27T18:09:10.058Z,1021.26
2018-11-27T18:10:10.048Z,1021.23
2018-11-27T18:11:10.041Z,1021.30
2018-11-27T18:12:10.028Z,1021.25
2018-11-27T18:13:10.013Z,1021.29
2018-11-27T18:14:10.004Z,1021.28
2018-11-27T18:15:09.991Z,1021.29
2018-11-27T18:16:09.981Z,1021.29
2018-11-27T18:17:09.970Z,1021.27
2018-11-27T18:18:09.957Z,1021.33
2018-11-27T18:19:09.955Z,1021.27
2018-11-27T18:20:10.008Z,1021.28
2018-11-27T18:21:09.923Z,1021.33
2018-11-27T18:22:09.915Z,1021.30
2018-11-27T18:23:09.909Z,1021.26
2018-11-27T18:24:09.893Z,1021.30
2018-11-27T18:25:09.882Z,1021.34
2018-11-27T18:26:09.867Z,1021.39
2018-11-27T18:27:09.859Z,1021.40
2018-11-27T18:28:09.847Z,1021.39
2018-11-27T18:29:09.842Z,1021.39
2018-11-27T18:30:09.822Z,1021.35
2018-11-27T18:31:09.812Z,1021.31
2018-11-27T18:32:09.800Z,1021.35
2018-11-27T18:33:09.789Z,1021.35
2018-11-27T18:34:09.781Z,1021.39
2018-11-27T18:35:09.773Z,1021.36
2018-11-27T18:36:09.755Z,1021.37
2018-11-27T18:37:09.744Z,1021.38
2018-11-27T18:38:09.737Z,1021.33
2018-11-27T18:39:09.770Z,1021.34
2018-11-27T18:55:09.548Z,1021.30
2018-11-27T18:56:09.535Z,1021.32
2018-11-27T19:11:09.367Z,1021.37
2018-11-27T19:18:09.288Z,1021.45
2018-11-27T19:58:08.841Z,1021.85
2018-11-27T19:59:08.831Z,1021.79
2018-11-27T20:00:08.825Z,1021.84
2018-11-27T20:01:08.811Z,1021.80
2018-11-27T20:02:08.798Z,1021.80